Time;durP1;ratioP1;P1;durP2;ratioP2;P2;SDS_P1;SDS_P2;PMS_P1;PMS_P2;Temp;Humidity;BMP_temperature;BMP_pressure;BME280_temperature;BME280_humidity;BME280_pressure;Samples;Min_cycle;Max_cycle;Signal;HPM_P1;HPM_P2
2021/11/22 00:01:15;;;;;;;4.65;0.90;;;;;;;4.30;100.00;100750.28;5020279;28;20033;-76
2021/11/22 00:03:40;;;;;;;6.88;1.10;;;;;;;4.25;100.00;100752.94;5033619;28;20037;-76
2021/11/22 00:06:06;;;;;;;7.68;1.67;;;;;;;4.23;100.00;100755.97;5033577;28;20026;-75
2021/11/22 00:08:32;;;;;;;4.43;1.55;;;;;;;4.23;100.00;100755.97;5034630;28;20029;-76
2021/11/22 00:10:57;;;;;;;8.68;1.70;;;;;;;4.24;100.00;100756.78;5040202;28;20029;-75
2021/11/22 00:13:23;;;;;;;8.52;1.77;;;;;;;4.22;100.00;100754.28;5038592;28;20033;-75
2021/11/22 00:15:48;;;;;;;2.83;1.02;;;;;;;4.23;100.00;100761.47;5032176;28;20053;-75
2021/11/22 00:18:14;;;;;;;3.85;1.00;;;;;;;4.25;100.00;100761.19;5029735;28;20029;-75
2021/11/22 00:20:40;;;;;;;4.30;1.23;;;;;;;4.23;100.00;100755.97;5034262;28;20036;-76
2021/11/22 00:23:05;;;;;;;5.38;1.33;;;;;;;4.23;100.00;100763.34;5036890;28;20045;-75
2021/11/22 00:25:30;;;;;;;3.35;1.17;;;;;;;4.18;100.00;100764.09;5034175;28;20037;-76
2021/11/22 00:27:56;;;;;;;3.97;1.20;;;;;;;4.16;100.00;100760.75;5034661;28;20082;-75
2021/11/22 00:30:21;;;;;;;3.35;1.40;;;;;;;4.16;100.00;100766.25;5016068;28;20385;-76
2021/11/22 00:32:47;;;;;;;3.75;1.05;;;;;;;4.17;100.00;100765.16;5032563;28;20025;-76
2021/11/22 00:35:14;;;;;;;4.88;1.52;;;;;;;4.16;100.00;100758.00;5022784;28;20041;-76
2021/11/22 00:37:41;;;;;;;6.55;1.45;;;;;;;4.15;100.00;100759.09;5014497;28;20029;-76
2021/11/22 00:40:08;;;;;;;5.55;1.38;;;;;;;4.11;100.00;100762.56;5029734;28;20061;-75
2021/11/22 00:42:34;;;;;;;5.90;1.25;;;;;;;4.11;100.00;100757.06;5033275;28;20025;-75
2021/11/22 00:44:59;;;;;;;6.22;1.40;;;;;;;4.09;100.00;100760.06;5015732;28;20033;-76
2021/11/22 00:47:25;;;;;;;3.53;1.00;;;;;;;4.07;100.00;100767.72;5001836;28;20478;-76
2021/11/22 00:49:50;;;;;;;5.45;1.75;;;;;;;4.08;100.00;100774.88;5034702;28;20025;-76
2021/11/22 00:52:16;;;;;;;5.10;1.20;;;;;;;4.06;100.00;100771.53;5029000;28;20033;-76
2021/11/22 00:54:42;;;;;;;4.57;1.60;;;;;;;4.01;100.00;100768.69;5026735;28;20033;-75
2021/11/22 00:57:07;;;;;;;5.88;1.20;;;;;;;4.00;100.00;100772.53;5030474;28;20038;-75
2021/11/22 00:59:34;;;;;;;3.45;1.33;;;;;;;4.00;100.00;100778.03;5030720;28;20029;-75
2021/11/22 01:02:00;;;;;;;7.50;1.45;;;;;;;4.00;100.00;100772.53;5017593;28;20101;-75
2021/11/22 01:04:25;;;;;;;6.78;1.60;;;;;;;4.02;100.00;100778.63;5033183;28;20036;-75
2021/11/22 01:06:51;;;;;;;5.60;1.20;;;;;;;3.98;100.00;100781.03;5031391;28;20481;-76
2021/11/22 01:09:16;;;;;;;5.38;1.70;;;;;;;3.97;100.00;100781.25;5034984;28;20037;-76
2021/11/22 01:11:42;;;;;;;3.25;1.08;;;;;;;3.97;100.00;100775.75;5045953;28;20037;-75
2021/11/22 01:14:08;;;;;;;6.15;1.20;;;;;;;3.93;100.00;100778.19;5025611;28;20042;-76
2021/11/22 01:16:34;;;;;;;4.70;1.10;;;;;;;3.89;100.00;100787.97;5034206;28;20037;-76
2021/11/22 01:19:00;;;;;;;5.60;1.35;;;;;;;3.85;100.00;100781.31;5032750;28;20021;-76
2021/11/22 01:21:25;;;;;;;3.58;0.90;;;;;;;3.86;100.00;100787.63;5032904;28;20037;-75
2021/11/22 01:23:51;;;;;;;6.88;1.52;;;;;;;3.89;100.00;100781.66;5035293;28;20049;-75
2021/11/22 01:26:17;;;;;;;9.38;1.40;;;;;;;3.81;100.00;100783.69;5032409;28;20502;-75
2021/11/22 01:28:42;;;;;;;7.95;1.30;;;;;;;3.81;100.00;100786.44;5029961;28;20433;-75
2021/11/22 01:31:08;;;;;;;3.38;1.20;;;;;;;3.81;100.00;100788.34;5034286;28;20025;-75
2021/11/22 01:33:33;;;;;;;6.60;1.55;;;;;;;3.72;100.00;100793.38;5015452;28;20032;-75
2021/11/22 01:35:58;;;;;;;4.65;0.95;;;;;;;3.73;100.00;100788.72;5032672;28;20036;-75
2021/11/22 01:38:24;;;;;;;4.95;1.10;;;;;;;3.73;100.00;100795.06;5029479;28;20071;-75
2021/11/22 01:40:49;;;;;;;9.98;1.90;;;;;;;3.67;100.00;100793.25;5034286;28;20033;-75
2021/11/22 01:43:16;;;;;;;4.82;1.25;;;;;;;3.62;100.00;100795.91;5034181;28;20037;-75
2021/11/22 01:45:42;;;;;;;5.50;1.40;;;;;;;3.55;100.00;100804.28;5024759;28;20026;-75
2021/11/22 01:48:08;;;;;;;4.95;1.05;;;;;;;3.62;100.00;100803.31;5032114;28;20025;-75
2021/11/22 01:50:33;;;;;;;5.03;1.08;;;;;;;3.56;100.00;100797.69;5030990;28;20036;-75
2021/11/22 01:52:59;;;;;;;3.80;0.88;;;;;;;3.58;100.00;100795.56;5034847;28;20478;-75
2021/11/22 01:55:25;;;;;;;9.55;1.40;;;;;;;3.49;100.00;100799.75;5032566;28;20033;-75
2021/11/22 01:57:52;;;;;;;4.22;1.20;;;;;;;3.46;100.00;100804.91;5030878;28;20063;-75
2021/11/22 02:00:21;;;;;;;3.15;0.93;;;;;;;3.45;100.00;100803.22;5034033;28;20029;-76
2021/11/22 02:02:47;;;;;;;4.65;1.10;;;;;;;3.41;100.00;100802.84;5033645;28;20068;-75
2021/11/22 02:05:12;;;;;;;3.72;1.15;;;;;;;3.39;100.00;100807.75;5035434;28;20030;-75
2021/11/22 02:07:38;;;;;;;4.97;1.05;;;;;;;3.38;100.00;100813.50;5036285;28;20033;-75
2021/11/22 02:10:04;;;;;;;5.85;0.90;;;;;;;3.36;100.00;100811.81;5035098;28;20079;-75
2021/11/22 02:12:31;;;;;;;2.08;0.90;;;;;;;3.30;100.00;100818.25;5003470;28;20030;-75
2021/11/22 02:14:57;;;;;;;4.60;1.15;;;;;;;3.27;100.00;100821.47;5036456;28;20037;-75
2021/11/22 02:17:22;;;;;;;6.03;1.10;;;;;;;3.26;100.00;100819.81;5032881;28;20033;-75
2021/11/22 02:19:56;;;;;;;5.45;1.05;;;;;;;3.21;100.00;100822.44;5037223;28;20029;-74
2021/11/22 02:22:22;;;;;;;2.63;0.88;;;;;;;3.24;100.00;100821.97;5035357;28;20071;-75
2021/11/22 02:24:48;;;;;;;4.95;1.45;;;;;;;3.25;100.00;100820.88;4985363;28;20434;-75
2021/11/22 02:27:13;;;;;;;6.68;1.17;;;;;;;3.16;100.00;100825.06;5036566;28;20037;-75
2021/11/22 02:29:39;;;;;;;6.47;1.27;;;;;;;3.18;100.00;100828.41;5034303;28;20107;-75
2021/11/22 02:32:05;;;;;;;4.80;1.00;;;;;;;3.21;100.00;100825.19;5035677;28;20025;-75
2021/11/22 02:34:30;;;;;;;6.15;1.02;;;;;;;3.16;100.00;100827.78;5035462;28;20088;-75
2021/11/22 02:36:55;;;;;;;6.78;1.17;;;;;;;3.17;100.00;100832.19;5033547;28;20033;-75
2021/11/22 02:39:21;;;;;;;7.88;1.35;;;;;;;3.14;100.00;100840.91;5018817;28;20393;-75
2021/11/22 02:41:47;;;;;;;5.15;1.17;;;;;;;3.10;100.00;100834.25;5036268;28;20029;-75
2021/11/22 02:44:13;;;;;;;5.95;1.23;;;;;;;3.07;100.00;100829.22;5035026;28;20029;-74
2021/11/22 02:46:38;;;;;;;4.75;1.73;;;;;;;3.10;100.00;100835.06;5035224;28;20148;-74
2021/11/22 02:49:04;;;;;;;3.08;1.08;;;;;;;3.07;100.00;100837.47;5035347;28;20041;-74
2021/11/22 02:51:29;;;;;;;5.13;1.90;;;;;;;3.00;100.00;100843.03;5032920;28;20037;-75
2021/11/22 02:54:02;;;;;;;4.35;1.33;;;;;;;3.01;100.00;100852.97;5038107;28;20038;-75
2021/11/22 02:56:29;;;;;;;4.78;1.17;;;;;;;2.97;100.00;100848.16;5036882;28;20036;-75
2021/11/22 02:58:55;;;;;;;4.28;1.05;;;;;;;2.95;100.00;100847.56;5028223;28;20030;-75
2021/11/22 03:01:20;;;;;;;6.57;1.02;;;;;;;2.95;100.00;100858.53;5037507;28;20040;-75
2021/11/22 03:03:46;;;;;;;5.97;1.80;;;;;;;2.97;100.00;100853.66;5033940;28;20033;-75
2021/11/22 03:06:12;;;;;;;7.10;1.20;;;;;;;2.95;100.00;100858.53;5016270;28;20030;-75
2021/11/22 03:08:39;;;;;;;3.50;0.98;;;;;;;2.86;100.00;100860.78;5036749;28;20033;-75
2021/11/22 03:11:04;;;;;;;2.63;0.90;;;;;;;2.90;100.00;100857.34;5033446;28;20033;-75
2021/11/22 03:13:30;;;;;;;5.90;1.23;;;;;;;2.83;100.00;100867.56;5030472;28;20038;-75
2021/11/22 03:15:55;;;;;;;7.78;1.42;;;;;;;2.84;100.00;100866.53;5037667;28;20021;-75
2021/11/22 03:18:21;;;;;;;5.15;1.33;;;;;;;2.82;100.00;100871.41;5017550;28;20029;-75
2021/11/22 03:20:46;;;;;;;5.82;1.48;;;;;;;2.81;100.00;100863.38;5036876;28;20095;-75
2021/11/22 03:23:12;;;;;;;10.43;1.70;;;;;;;2.81;100.00;100877.09;5026357;28;20404;-75
2021/11/22 03:25:37;;;;;;;6.00;1.23;;;;;;;2.81;100.00;100875.19;5035697;28;20029;-76
2021/11/22 03:28:03;;;;;;;6.75;1.27;;;;;;;2.77;100.00;100878.66;5034535;28;20029;-75
2021/11/22 03:30:29;;;;;;;6.70;1.30;;;;;;;2.80;100.00;100886.41;5035919;28;20041;-76
2021/11/22 03:32:54;;;;;;;8.00;1.25;;;;;;;2.81;100.00;100882.59;5034121;28;20548;-75
2021/11/22 03:35:19;;;;;;;2.67;1.00;;;;;;;2.80;100.00;100878.19;5030190;28;20014;-75
2021/11/22 03:37:46;;;;;;;9.10;1.27;;;;;;;2.77;100.00;100881.41;5034336;28;20030;-75
2021/11/22 03:40:12;;;;;;;6.25;1.60;;;;;;;2.71;100.00;100896.88;5017649;28;20044;-75
2021/11/22 03:42:52;;;;;;;5.95;1.13;;;;;;;2.74;100.00;100887.34;5028654;28;20559;-75
2021/11/22 03:45:17;;;;;;;5.18;1.10;;;;;;;2.75;100.00;100887.09;5031346;28;20029;-75
2021/11/22 03:47:43;;;;;;;5.90;1.10;;;;;;;2.76;100.00;100891.53;5014868;28;20049;-75
2021/11/22 03:50:08;;;;;;;6.00;1.50;;;;;;;2.77;100.00;100895.13;5031154;28;20025;-75
2021/11/22 03:52:34;;;;;;;11.82;1.70;;;;;;;2.73;100.00;100892.00;5032313;28;20477;-75
2021/11/22 03:54:59;;;;;;;4.50;1.67;;;;;;;2.75;100.00;100898.06;5034110;28;20065;-75
2021/11/22 03:57:27;;;;;;;8.32;1.42;;;;;;;2.77;100.00;100884.97;5032441;28;20036;-75
2021/11/22 03:59:54;;;;;;;6.50;1.38;;;;;;;2.79;100.00;100888.31;5031055;28;20505;-75
2021/11/22 04:02:20;;;;;;;10.73;1.50;;;;;;;2.78;100.00;100894.03;5035945;28;20421;-75
2021/11/22 04:04:45;;;;;;;8.30;1.30;;;;;;;2.78;100.00;100900.34;5011035;28;20030;-75
2021/11/22 04:07:11;;;;;;;9.60;1.45;;;;;;;2.82;100.00;100898.00;5033209;28;20033;-75
2021/11/22 04:09:36;;;;;;;6.53;1.40;;;;;;;2.78;100.00;100905.00;5029826;28;20051;-75
2021/11/22 04:12:02;;;;;;;6.32;1.58;;;;;;;2.76;100.00;100902.50;5035169;28;20034;-75
2021/11/22 04:14:27;;;;;;;6.40;1.60;;;;;;;2.76;100.00;100905.25;5029452;28;20485;-75
2021/11/22 04:16:53;;;;;;;8.82;2.20;;;;;;;2.79;100.00;100907.53;5032094;28;20033;-75
2021/11/22 04:19:18;;;;;;;9.23;1.50;;;;;;;2.73;100.00;100916.69;5017344;28;20025;-75
2021/11/22 04:21:43;;;;;;;3.97;1.30;;;;;;;2.71;100.00;100913.34;5032575;28;20029;-75
2021/11/22 04:24:09;;;;;;;10.73;1.90;;;;;;;2.76;100.00;100916.22;5016917;28;20056;-75
2021/11/22 04:26:34;;;;;;;8.85;1.40;;;;;;;2.72;100.00;100923.22;5031260;28;20033;-75
2021/11/22 04:29:00;;;;;;;7.85;1.17;;;;;;;2.71;100.00;100929.78;5031040;28;20436;-75
2021/11/22 04:31:26;;;;;;;10.07;1.92;;;;;;;2.71;100.00;100928.97;5032958;28;20034;-75
2021/11/22 04:33:51;;;;;;;9.57;1.40;;;;;;;2.71;100.00;100924.31;5031943;28;20056;-76
2021/11/22 04:36:17;;;;;;;6.05;1.48;;;;;;;2.77;100.00;100934.34;5033385;28;20501;-75
2021/11/22 04:38:42;;;;;;;5.95;1.33;;;;;;;2.71;100.00;100937.19;5027718;28;20026;-75
2021/11/22 04:41:08;;;;;;;6.22;1.58;;;;;;;2.71;100.00;100939.94;5030233;28;20041;-75
2021/11/22 04:43:33;;;;;;;9.15;1.73;;;;;;;2.72;100.00;100941.59;5032335;28;20033;-76
2021/11/22 04:45:59;;;;;;;5.60;1.10;;;;;;;2.70;100.00;100941.81;5017324;28;20033;-75
2021/11/22 04:48:24;;;;;;;5.45;1.23;;;;;;;2.67;100.00;100936.78;5030357;28;20092;-75
2021/11/22 04:50:50;;;;;;;8.02;1.50;;;;;;;2.67;100.00;100939.53;5031994;28;20029;-75
2021/11/22 04:53:15;;;;;;;8.35;1.50;;;;;;;2.67;100.00;100950.50;5033072;28;20033;-75
2021/11/22 04:55:41;;;;;;;6.68;1.50;;;;;;;2.65;100.00;100953.50;5034416;28;20048;-76
2021/11/22 04:58:08;;;;;;;8.93;1.88;;;;;;;2.68;100.00;100946.72;5033229;28;20389;-76
2021/11/22 05:00:35;;;;;;;7.13;1.50;;;;;;;2.66;100.00;100944.19;5029427;28;20025;-76
2021/11/22 05:03:00;;;;;;;7.82;1.50;;;;;;;2.66;100.00;100951.59;5033843;28;20375;-76
2021/11/22 05:05:26;;;;;;;9.05;1.65;;;;;;;2.67;100.00;100953.25;5042194;28;20033;-76
2021/11/22 05:07:51;;;;;;;11.73;1.88;;;;;;;2.69;100.00;100949.22;5030100;28;20045;-75
2021/11/22 05:10:18;;;;;;;8.40;1.60;;;;;;;2.68;100.00;100958.53;5029608;28;20044;-76
2021/11/22 05:12:43;;;;;;;8.05;1.90;;;;;;;2.66;100.00;100957.91;5028665;28;20037;-75
2021/11/22 05:15:09;;;;;;;3.83;1.40;;;;;;;2.67;100.00;100950.50;5032249;28;20029;-75
2021/11/22 05:17:34;;;;;;;10.13;1.70;;;;;;;2.64;100.00;100959.19;5032663;28;20050;-76
2021/11/22 05:20:01;;;;;;;9.90;1.50;;;;;;;2.62;100.00;100962.19;5032988;28;20032;-75
2021/11/22 05:22:26;;;;;;;5.50;1.60;;;;;;;2.64;100.00;100965.50;5029778;28;20045;-75
2021/11/22 05:24:52;;;;;;;9.70;1.23;;;;;;;2.63;100.00;100958.38;5032945;28;20025;-76
2021/11/22 05:27:22;;;;;;;13.82;1.73;;;;;;;2.61;100.00;100962.41;5033717;28;20025;-75
2021/11/22 05:29:49;;;;;;;10.98;1.42;;;;;;;2.63;100.00;100968.50;5030238;28;20029;-76
2021/11/22 05:32:16;;;;;;;12.50;1.73;;;;;;;2.63;100.00;100966.59;5034866;28;20053;-76
2021/11/22 05:34:45;;;;;;;7.65;1.73;;;;;;;2.62;100.00;100975.06;5037619;28;20520;-76
2021/11/22 05:37:11;;;;;;;12.55;1.60;;;;;;;2.61;100.00;100979.69;5035299;28;20033;-75
2021/11/22 05:39:37;;;;;;;16.50;1.73;;;;;;;2.61;100.00;100973.38;5046804;28;20104;-75
2021/11/22 05:42:03;;;;;;;7.45;1.60;;;;;;;2.59;100.00;100976.38;5037997;28;20024;-76
2021/11/22 05:44:28;;;;;;;10.05;1.88;;;;;;;2.60;100.00;100988.16;5038656;28;20030;-75
2021/11/22 05:46:54;;;;;;;12.85;2.17;;;;;;;2.55;100.00;100991.59;5037058;28;20026;-75
2021/11/22 05:49:19;;;;;;;8.02;1.90;;;;;;;2.55;100.00;100988.00;5038094;28;20052;-76
2021/11/22 05:51:45;;;;;;;9.30;1.95;;;;;;;2.52;100.00;100980.25;5020617;28;20037;-75
2021/11/22 05:54:11;;;;;;;11.60;2.38;;;;;;;2.51;100.00;100995.88;5038331;28;20394;-75
2021/11/22 05:56:37;;;;;;;20.77;6.88;;;;;;;2.46;100.00;100993.78;5018209;28;20076;-75
2021/11/22 05:59:03;;;;;;;23.95;7.18;;;;;;;2.47;100.00;100989.97;5032708;28;20127;-75
2021/11/22 06:01:28;;;;;;;13.15;6.47;;;;;;;2.51;100.00;100989.53;5038423;28;20040;-76
2021/11/22 06:03:54;;;;;;;12.57;4.32;;;;;;;2.47;100.00;100994.63;5035602;28;20041;-75
2021/11/22 06:06:19;;;;;;;13.48;3.90;;;;;;;2.44;100.00;100995.09;5035436;28;20041;-76
2021/11/22 06:08:45;;;;;;;16.00;3.58;;;;;;;2.43;100.00;100997.00;5015090;28;20030;-76
2021/11/22 06:11:10;;;;;;;10.55;3.45;;;;;;;2.40;100.00;100994.72;5014172;28;20029;-76
2021/11/22 06:13:36;;;;;;;11.68;5.22;;;;;;;2.39;100.00;100998.50;5030560;28;20044;-75
2021/11/22 06:16:01;;;;;;;12.55;4.40;;;;;;;2.38;100.00;101005.06;5019508;28;20037;-76
2021/11/22 06:18:27;;;;;;;9.43;4.03;;;;;;;2.40;100.00;101000.19;5033000;28;20537;-76
2021/11/22 06:20:52;;;;;;;10.25;3.20;;;;;;;2.40;100.00;101004.84;5029348;28;20026;-76
2021/11/22 06:23:18;;;;;;;9.07;2.78;;;;;;;2.35;100.00;100997.31;5038809;28;20053;-75
2021/11/22 06:25:43;;;;;;;12.60;3.08;;;;;;;2.35;100.00;101012.91;5035353;28;20108;-76
2021/11/22 06:28:09;;;;;;;19.35;5.47;;;;;;;2.34;100.00;101006.59;5037720;28;20033;-76
2021/11/22 06:30:34;;;;;;;22.67;7.70;;;;;;;2.35;100.00;101018.41;5036350;28;20037;-75
2021/11/22 06:33:00;;;;;;;32.10;8.90;;;;;;;2.34;100.00;101020.31;5034359;28;20486;-68
2021/11/22 06:35:25;;;;;;;19.67;4.75;;;;;;;2.36;100.00;101018.16;5038152;28;20033;-75
2021/11/22 06:37:51;;;;;;;12.35;3.47;;;;;;;2.40;100.00;101027.63;5001930;28;20044;-75
2021/11/22 06:40:17;;;;;;;16.50;4.63;;;;;;;2.39;100.00;101016.88;5034176;28;20030;-74
2021/11/22 06:42:43;;;;;;;15.10;3.53;;;;;;;2.40;100.00;101022.13;5038189;28;20098;-75
2021/11/22 06:45:08;;;;;;;18.48;5.70;;;;;;;2.37;100.00;101025.34;5035949;28;20034;-75
2021/11/22 06:47:34;;;;;;;14.13;3.53;;;;;;;2.37;100.00;101028.06;5035140;28;20033;-75
2021/11/22 06:50:00;;;;;;;14.30;4.25;;;;;;;2.37;100.00;101033.56;5036097;28;20026;-75
2021/11/22 06:52:25;;;;;;;14.60;3.72;;;;;;;2.36;100.00;101034.59;5034680;28;20041;-75
2021/11/22 06:54:52;;;;;;;13.27;3.50;;;;;;;2.39;100.00;101036.88;5036451;28;20053;-75
2021/11/22 06:57:17;;;;;;;22.45;3.97;;;;;;;2.38;100.00;101039.88;5029982;28;20390;-74
2021/11/22 06:59:43;;;;;;;7.55;3.72;;;;;;;2.40;100.00;101049.53;5031110;28;20025;-75
2021/11/22 07:02:13;;;;;;;15.90;4.35;;;;;;;2.40;100.00;101043.22;5028176;28;20512;-75
2021/11/22 07:04:40;;;;;;;16.25;4.70;;;;;;;2.42;100.00;101052.03;5035282;28;20037;-75
2021/11/22 07:07:05;;;;;;;17.42;5.10;;;;;;;2.42;100.00;101061.13;5015784;28;20029;-74
2021/11/22 07:09:31;;;;;;;10.55;4.05;;;;;;;2.40;100.00;101049.53;5024631;28;20029;-74
2021/11/22 07:11:56;;;;;;;18.42;5.20;;;;;;;2.40;100.00;101052.28;5018831;28;20057;-74
2021/11/22 07:14:22;;;;;;;13.50;3.75;;;;;;;2.43;100.00;101064.72;5033032;28;20547;-75
2021/11/22 07:16:49;;;;;;;12.52;3.97;;;;;;;2.42;100.00;101071.22;5036422;28;20053;-74
2021/11/22 07:19:15;;;;;;;14.73;4.63;;;;;;;2.44;100.00;101069.13;5036125;28;20033;-75
2021/11/22 07:21:40;;;;;;;13.13;4.28;;;;;;;2.43;100.00;101071.03;5036211;28;20056;-75
2021/11/22 07:24:06;;;;;;;9.30;4.25;;;;;;;2.46;100.00;101080.69;5036331;28;20041;-75
2021/11/22 07:26:32;;;;;;;18.63;6.75;;;;;;;2.43;100.00;101087.47;5036173;28;20065;-73
2021/11/22 07:28:57;;;;;;;16.40;6.43;;;;;;;2.46;100.00;101081.53;5035889;28;20509;-73
2021/11/22 07:31:23;;;;;;;25.33;9.55;;;;;;;2.46;100.00;101097.97;5035196;28;20029;-73
2021/11/22 07:33:48;;;;;;;24.80;8.40;;;;;;;2.45;100.00;101100.94;5033826;28;20029;-72
2021/11/22 07:36:14;;;;;;;24.33;9.90;;;;;;;2.46;100.00;101099.88;5035440;28;20037;-73
2021/11/22 07:38:39;;;;;;;19.67;8.20;;;;;;;2.47;100.00;101107.03;5037064;28;20029;-72
2021/11/22 07:41:05;;;;;;;17.77;7.25;;;;;;;2.47;100.00;101107.03;5033025;28;20045;-73
2021/11/22 07:43:30;;;;;;;22.27;7.70;;;;;;;2.45;100.00;101117.38;5036020;28;20026;-72
2021/11/22 07:45:56;;;;;;;18.42;6.50;;;;;;;2.44;100.00;101116.56;5035437;28;20041;-73
2021/11/22 07:48:22;;;;;;;26.45;11.30;;;;;;;2.45;100.00;101126.47;5036004;28;20033;-73
2021/11/22 07:50:47;;;;;;;29.20;11.77;;;;;;;2.46;100.00;101130.88;5025145;28;20083;-73
2021/11/22 07:53:13;;;;;;;28.80;10.23;;;;;;;2.46;100.00;101130.88;5035146;28;20041;-73
2021/11/22 07:55:38;;;;;;;18.75;7.38;;;;;;;2.48;100.00;101127.94;5037121;28;20037;-73
2021/11/22 07:58:04;;;;;;;15.38;4.47;;;;;;;2.52;100.00;101136.53;5044543;28;20040;-73
2021/11/22 08:00:29;;;;;;;14.98;4.72;;;;;;;2.54;100.00;101129.75;5035563;28;20096;-73
2021/11/22 08:02:55;;;;;;;13.88;4.75;;;;;;;2.56;100.00;101130.34;5033874;28;20397;-73
2021/11/22 08:05:22;;;;;;;16.65;4.78;;;;;;;2.60;100.00;101133.50;5037091;28;20033;-73
2021/11/22 08:07:50;;;;;;;17.92;5.32;;;;;;;2.63;100.00;101135.78;5009828;28;20038;-72
2021/11/22 08:10:18;;;;;;;18.65;5.00;;;;;;;2.67;100.00;101137.00;5004437;28;20034;-73
2021/11/22 08:12:43;;;;;;;15.00;4.85;;;;;;;2.70;100.00;101136.53;5028533;28;20030;-73
2021/11/22 08:15:10;;;;;;;18.63;4.72;;;;;;;2.76;100.00;101129.31;5028951;28;20091;-73
2021/11/22 08:17:39;;;;;;;14.48;3.65;;;;;;;2.80;100.00;101144.28;5036217;28;20033;-73
2021/11/22 08:20:06;;;;;;;18.13;3.15;;;;;;;2.87;100.00;101134.91;5030526;28;21427;-72
2021/11/22 08:22:32;;;;;;;8.73;3.15;;;;;;;2.93;100.00;101143.31;5031607;28;20041;-73
2021/11/22 08:24:57;;;;;;;14.63;2.67;;;;;;;2.97;100.00;101148.09;5034861;28;20041;-73
2021/11/22 08:27:24;;;;;;;12.00;2.20;;;;;;;3.03;100.00;101146.34;5022845;28;20037;-72
2021/11/22 08:29:50;;;;;;;14.57;4.22;;;;;;;3.12;100.00;101155.94;5030929;28;20041;-72
2021/11/22 08:32:16;;;;;;;10.82;2.58;;;;;;;3.16;100.00;101157.16;5035010;28;20605;-73
2021/11/22 08:34:41;;;;;;;7.63;1.83;;;;;;;3.24;100.00;101154.09;5017551;28;20041;-72
2021/11/22 08:37:07;;;;;;;10.02;2.22;;;;;;;3.32;100.00;101156.53;5035306;28;20033;-72
2021/11/22 08:39:32;;;;;;;8.32;2.03;;;;;;;3.38;100.00;101142.97;5025300;28;20029;-73
2021/11/22 08:41:58;;;;;;;8.52;1.55;;;;;;;3.49;100.00;101145.75;5035262;28;20386;-73
2021/11/22 08:44:23;;;;;;;16.25;4.03;;;;;;;3.54;100.00;101147.81;5033602;28;20033;-73
2021/11/22 08:46:49;;;;;;;12.05;2.38;;;;;;;3.67;100.00;101150.38;5035374;28;20482;-73
2021/11/22 08:49:15;;;;;;;10.18;2.05;;;;;;;3.78;100.00;101149.56;5032347;28;20033;-73
2021/11/22 08:51:41;;;;;;;6.90;2.53;;;;;;;3.84;100.00;101160.72;5035386;28;20139;-73
2021/11/22 08:54:06;;;;;;;9.10;1.90;;;;;;;3.90;100.00;101152.38;5021419;28;20029;-73
2021/11/22 08:56:32;;;;;;;6.28;2.38;;;;;;;3.97;100.00;101161.34;5015591;28;20029;-73
2021/11/22 08:58:57;;;;;;;9.20;2.10;;;;;;;4.02;100.00;101152.41;5031362;28;20025;-73
2021/11/22 09:01:23;;;;;;;8.70;2.10;;;;;;;4.14;100.00;101158.75;5035116;28;20038;-72
2021/11/22 09:03:51;;;;;;;7.68;1.23;;;;;;;4.27;100.00;101160.47;5033635;28;20029;-73
2021/11/22 09:06:16;;;;;;;5.40;0.82;;;;;;;4.34;100.00;101163.94;5034711;28;20095;-72
2021/11/22 09:08:42;;;;;;;7.95;1.42;;;;;;;4.38;100.00;101164.31;5020897;28;20041;-73
2021/11/22 09:11:07;;;;;;;7.28;1.42;;;;;;;4.47;100.00;101163.72;5034916;28;20029;-73
2021/11/22 09:13:33;;;;;;;7.65;1.27;;;;;;;4.61;100.00;101169.00;5028639;28;20034;-72
2021/11/22 09:15:58;;;;;;;3.85;1.05;;;;;;;4.68;100.00;101165.06;5035062;28;20036;-73
2021/11/22 09:18:24;;;;;;;3.33;1.00;;;;;;;4.75;100.00;101169.59;5032429;28;20475;-73
2021/11/22 09:20:51;;;;;;;6.88;1.10;;;;;;;4.83;100.00;101172.00;5001610;28;20441;-73
2021/11/22 09:23:17;;;;;;;8.80;1.35;;;;;;;4.84;100.00;101173.66;5032869;28;20037;-73
2021/11/22 09:25:43;;;;;;;6.75;1.35;;;;;;;4.91;100.00;101174.41;5034929;28;20044;-73
2021/11/22 09:28:10;;;;;;;10.10;1.15;;;;;;;4.90;100.00;101173.56;5033358;28;20390;-74
2021/11/22 09:30:35;;;;;;;8.77;1.15;;;;;;;4.96;100.00;101180.03;5033414;28;20555;-73
2021/11/22 09:33:01;;;;;;;4.90;0.85;;;;;;;5.05;100.00;101186.00;5033451;28;20029;-72
2021/11/22 09:35:27;;;;;;;3.17;0.98;;;;;;;5.05;100.00;101189.59;5034146;28;20032;-73
2021/11/22 09:37:53;;;;;;;8.32;1.10;;;;;;;5.12;100.00;101198.53;5031017;28;20026;-72
2021/11/22 09:40:19;;;;;;;9.15;1.63;;;;;;;5.22;100.00;101195.19;5034304;28;20060;-71
2021/11/22 09:42:44;;;;;;;4.70;1.10;;;;;;;5.31;100.00;101193.72;5031892;28;20026;-73
2021/11/22 09:45:13;;;;;;;4.68;0.80;;;;;;;5.30;100.00;101197.56;5034315;28;20026;-73
2021/11/22 09:47:39;;;;;;;4.00;0.93;;;;;;;5.41;99.83;101195.88;5030271;28;20053;-73
2021/11/22 09:50:06;;;;;;;7.80;1.00;;;;;;;5.52;99.51;101202.44;5023974;28;20025;-73
2021/11/22 09:52:32;;;;;;;2.72;0.85;;;;;;;5.51;99.66;101201.56;5031130;28;20025;-73
2021/11/22 09:54:58;;;;;;;4.72;0.90;;;;;;;5.63;98.93;101200.72;5034156;28;20029;-73
2021/11/22 09:57:23;;;;;;;2.83;0.57;;;;;;;5.67;98.11;101197.22;5032565;28;20038;-73
2021/11/22 09:59:48;;;;;;;3.42;0.90;;;;;;;5.68;98.49;101198.06;5030232;28;20022;-73
2021/11/22 10:02:14;;;;;;;2.50;1.00;;;;;;;5.80;97.54;101201.63;5033889;28;20044;-73
2021/11/22 10:04:39;;;;;;;7.38;0.95;;;;;;;5.84;97.21;101208.31;5034052;28;20366;-72
2021/11/22 10:07:06;;;;;;;4.63;0.70;;;;;;;5.86;95.52;101202.56;5032756;28;20033;-72
2021/11/22 10:09:35;;;;;;;4.90;0.80;;;;;;;5.92;94.17;101205.16;5033141;28;20033;-73
2021/11/22 10:12:06;;;;;;;5.65;1.00;;;;;;;5.95;93.97;101199.19;5031688;28;20030;-72
2021/11/22 10:14:49;;;;;;;4.10;0.80;;;;;;;6.04;94.54;101211.50;5032609;28;20057;-73
2021/11/22 10:17:33;;;;;;;3.55;1.25;;;;;;;6.06;93.87;101207.66;5023727;28;20053;-74
2021/11/22 10:20:11;;;;;;;1.98;0.70;;;;;;;6.10;92.46;101200.56;5032279;28;20037;-73
2021/11/22 10:23:01;;;;;;;5.82;0.85;;;;;;;6.18;90.91;101200.16;5037154;28;20045;-72
2021/11/22 10:25:30;;;;;;;1.02;0.63;;;;;;;6.22;88.75;101215.97;5029668;28;20059;-72
2021/11/22 10:28:04;;;;;;;6.50;1.10;;;;;;;6.19;89.54;101212.88;5038745;28;20037;-73
2021/11/22 10:30:30;;;;;;;4.40;0.80;;;;;;;6.23;89.35;101214.03;5034323;28;20034;-72
2021/11/22 10:32:57;;;;;;;7.13;1.30;;;;;;;6.23;90.67;101216.81;5037831;28;20112;-73
2021/11/22 10:35:24;;;;;;;2.47;0.85;;;;;;;6.29;88.16;101207.53;5036606;28;20393;-71
2021/11/22 10:38:18;;;;;;;2.20;0.57;;;;;;;6.42;86.37;101204.47;5031463;28;20056;-72
2021/11/22 10:40:48;;;;;;;2.72;0.65;;;;;;;6.39;87.71;101207.72;5033221;28;20037;-73
2021/11/22 10:43:13;;;;;;;4.53;0.88;;;;;;;6.51;86.53;101202.13;5038383;28;20117;-71
2021/11/22 10:45:50;;;;;;;0.90;0.60;;;;;;;6.54;84.74;101214.59;5033913;28;20029;-72
2021/11/22 10:48:27;;;;;;;3.63;0.55;;;;;;;6.58;83.72;101207.50;5035831;28;20042;-72
2021/11/22 10:51:03;;;;;;;5.30;1.35;;;;;;;6.59;86.15;101200.88;5037892;28;20045;-73
2021/11/22 10:53:37;;;;;;;4.35;0.60;;;;;;;6.62;84.30;101197.59;5036208;28;20524;-73
2021/11/22 10:56:04;;;;;;;3.45;0.90;;;;;;;6.70;83.56;101198.03;5010749;28;20029;-73
2021/11/22 10:58:37;;;;;;;1.70;0.70;;;;;;;6.73;83.13;101182.88;5025428;28;20504;-72
2021/11/22 11:01:45;;;;;;;4.15;0.50;;;;;;;6.78;83.04;101187.66;5034477;28;20037;-73
2021/11/22 11:04:19;;;;;;;5.05;0.75;;;;;;;6.75;84.14;101193.69;5014017;28;20038;-71
2021/11/22 11:06:49;;;;;;;2.03;0.57;;;;;;;6.82;84.29;101189.63;5034242;28;20643;-73
2021/11/22 11:09:17;;;;;;;3.75;0.70;;;;;;;6.86;83.25;101179.78;5038138;28;20478;-75
2021/11/22 11:11:43;;;;;;;1.70;0.70;;;;;;;6.86;80.25;101201.03;4999011;28;20089;-73
2021/11/22 11:14:10;;;;;;;4.00;0.80;;;;;;;6.86;79.91;101188.06;5030679;28;20633;-73
2021/11/22 11:16:36;;;;;;;2.63;0.80;;;;;;;6.93;80.74;101193.41;5019329;28;20069;-73
2021/11/22 11:19:04;;;;;;;1.73;0.55;;;;;;;6.96;77.94;101189.28;5033195;28;20022;-74
2021/11/22 11:21:32;;;;;;;2.70;0.80;;;;;;;7.06;78.78;101183.94;5038097;28;20029;-73